Time;durP1;ratioP1;P1;durP2;ratioP2;P2;SDS_P1;SDS_P2;PMS_P1;PMS_P2;Temp;Humidity;BMP_temperature;BMP_pressure;BME280_temperature;BME280_humidity;BME280_pressure;Samples;Min_cycle;Max_cycle;Signal;HPM_P1;HPM_P2
2020/12/12 00:01:41;;;;;;;38.47;20.00;;;4.50;93.70;;;;;;4962662;28;20231;-83
2020/12/12 00:04:08;;;;;;;31.80;18.33;;;4.50;93.70;;;;;;4966414;28;20293;-81
2020/12/12 00:06:36;;;;;;;36.80;19.20;;;4.50;93.80;;;;;;4948169;28;20223;-83
2020/12/12 00:09:04;;;;;;;38.77;20.00;;;4.50;93.80;;;;;;4955813;28;20234;-80
2020/12/12 00:11:31;;;;;;;22.00;12.30;;;4.50;93.80;;;;;;4951261;28;20209;-81
2020/12/12 00:14:00;;;;;;;39.83;19.90;;;4.50;93.80;;;;;;4961129;28;20223;-82
2020/12/12 00:16:27;;;;;;;35.93;19.43;;;4.50;93.80;;;;;;4983353;28;20271;-81
2020/12/12 00:18:55;;;;;;;37.03;19.57;;;4.50;93.80;;;;;;4979314;28;20219;-82
2020/12/12 00:21:23;;;;;;;38.83;19.07;;;4.50;93.80;;;;;;4967815;28;20566;-82
2020/12/12 00:23:51;;;;;;;37.10;19.13;;;4.50;93.80;;;;;;4944757;28;20328;-81
2020/12/12 00:26:19;;;;;;;39.37;19.70;;;4.50;93.80;;;;;;4960144;28;20295;-82
2020/12/12 00:28:47;;;;;;;35.53;19.20;;;4.50;93.80;;;;;;4943110;28;20656;-80
2020/12/12 00:31:19;;;;;;;34.47;18.10;;;4.60;93.80;;;;;;4954379;28;20224;-82
2020/12/12 00:33:48;;;;;;;31.20;18.03;;;4.50;93.80;;;;;;4962971;28;20210;-83
2020/12/12 00:36:17;;;;;;;35.27;17.50;;;4.50;93.80;;;;;;4950824;28;20343;-80
2020/12/12 00:38:44;;;;;;;30.03;16.53;;;4.50;93.80;;;;;;4949335;28;20291;-83
2020/12/12 00:41:12;;;;;;;36.57;18.20;;;4.50;93.80;;;;;;4950145;28;20672;-82
2020/12/12 00:43:40;;;;;;;29.67;16.37;;;4.50;93.80;;;;;;4953523;28;20209;-81
2020/12/12 00:46:07;;;;;;;33.30;16.43;;;4.50;93.80;;;;;;4960457;28;20206;-83
2020/12/12 00:48:36;;;;;;;29.40;15.80;;;4.50;93.90;;;;;;4945029;28;20205;-81
2020/12/12 00:51:03;;;;;;;28.93;15.17;;;4.50;93.90;;;;;;4959910;28;20227;-82
2020/12/12 00:53:31;;;;;;;30.20;14.90;;;4.50;93.90;;;;;;4969274;28;20619;-80
2020/12/12 00:55:58;;;;;;;25.57;16.53;;;4.60;93.90;;;;;;4953889;28;20326;-84
2020/12/12 00:58:26;;;;;;;27.80;15.03;;;4.50;93.90;;;;;;4948715;28;20748;-80
2020/12/12 01:00:56;;;;;;;27.83;14.13;;;4.60;93.90;;;;;;4947540;28;20568;-82
2020/12/12 01:03:24;;;;;;;27.07;15.83;;;4.60;93.90;;;;;;4951125;28;20213;-80
2020/12/12 01:05:53;;;;;;;26.43;14.47;;;4.50;93.90;;;;;;4956904;28;20517;-83
2020/12/12 01:08:21;;;;;;;29.10;15.93;;;4.60;93.90;;;;;;4944770;28;20509;-80
2020/12/12 01:10:48;;;;;;;27.57;15.90;;;4.60;93.90;;;;;;4952970;28;20216;-82
2020/12/12 01:13:16;;;;;;;28.67;15.80;;;4.50;93.90;;;;;;4989535;28;20196;-82
2020/12/12 01:15:44;;;;;;;28.33;16.23;;;4.50;93.90;;;;;;4973967;28;20217;-84
2020/12/12 01:18:11;;;;;;;21.93;11.70;;;4.50;93.90;;;;;;4969577;28;20213;-82
2020/12/12 01:20:40;;;;;;;29.70;16.70;;;4.70;93.90;;;;;;4965459;28;20202;-82
2020/12/12 01:23:09;;;;;;;29.77;16.63;;;4.50;93.90;;;;;;4959203;28;20224;-82
2020/12/12 01:25:37;;;;;;;31.13;17.37;;;4.50;93.90;;;;;;4966334;28;20673;-80
2020/12/12 01:28:05;;;;;;;30.30;17.80;;;4.40;93.90;;;;;;4956418;28;20305;-82
2020/12/12 01:30:34;;;;;;;31.00;16.73;;;4.50;93.90;;;;;;4950903;28;20659;-80
2020/12/12 01:33:02;;;;;;;28.70;16.97;;;4.50;93.90;;;;;;4949997;28;20196;-81
2020/12/12 01:35:30;;;;;;;31.07;17.53;;;4.50;93.90;;;;;;4954478;28;20282;-81
2020/12/12 01:37:58;;;;;;;31.00;16.67;;;4.50;93.90;;;;;;4963210;28;20465;-81
2020/12/12 01:40:26;;;;;;;32.70;17.73;;;4.40;93.90;;;;;;4982311;28;20290;-83
2020/12/12 01:42:54;;;;;;;25.23;14.87;;;4.50;93.90;;;;;;4980165;28;20195;-82
2020/12/12 01:45:21;;;;;;;27.40;15.40;;;4.40;93.80;;;;;;4978494;28;20278;-82
2020/12/12 01:47:49;;;;;;;33.07;17.77;;;4.40;93.80;;;;;;4969694;28;20216;-82
2020/12/12 01:50:17;;;;;;;27.17;14.77;;;4.40;93.80;;;;;;4972699;28;20197;-79
2020/12/12 01:52:50;;;;;;;21.43;13.53;;;4.40;93.90;;;;;;4970391;28;20193;-80
2020/12/12 01:55:20;;;;;;;30.23;18.20;;;4.50;93.90;;;;;;4972386;28;20235;-81
2020/12/12 01:57:50;;;;;;;30.53;17.57;;;4.40;93.80;;;;;;4968123;28;20260;-82
2020/12/12 02:00:18;;;;;;;33.03;18.00;;;4.40;93.80;;;;;;4976385;28;20203;-80
2020/12/12 02:02:48;;;;;;;32.03;18.10;;;4.40;93.90;;;;;;4952011;28;20235;-81
2020/12/12 02:05:41;;;;;;;33.63;18.07;;;4.40;93.80;;;;;;4955788;28;20218;-80
2020/12/12 02:08:12;;;;;;;32.63;19.23;;;4.40;93.90;;;;;;4957150;28;20208;-82
2020/12/12 02:10:41;;;;;;;32.47;17.67;;;4.30;93.80;;;;;;4959019;28;20216;-82
2020/12/12 02:13:11;;;;;;;30.37;17.53;;;4.30;93.80;;;;;;4970840;28;20313;-82
2020/12/12 02:15:40;;;;;;;36.77;20.63;;;4.30;93.80;;;;;;4971444;28;20274;-82
2020/12/12 02:18:08;;;;;;;38.13;20.13;;;4.30;93.80;;;;;;4970759;28;20208;-82
2020/12/12 02:20:36;;;;;;;34.30;19.53;;;4.20;93.80;;;;;;4975457;28;20203;-80
2020/12/12 02:23:04;;;;;;;36.67;19.87;;;4.40;93.90;;;;;;4969480;28;20197;-80
2020/12/12 02:25:31;;;;;;;29.93;17.90;;;4.20;93.80;;;;;;4980966;28;20222;-81
2020/12/12 02:27:59;;;;;;;38.20;20.17;;;4.20;93.80;;;;;;4982184;28;20192;-80
2020/12/12 02:30:26;;;;;;;36.27;20.17;;;4.20;93.80;;;;;;4979706;28;20192;-81
2020/12/12 02:32:54;;;;;;;40.30;21.93;;;4.40;93.90;;;;;;4982770;28;20215;-82
2020/12/12 02:35:21;;;;;;;39.00;21.30;;;4.20;93.80;;;;;;4981865;28;20195;-81
2020/12/12 02:37:49;;;;;;;38.37;20.60;;;4.20;93.80;;;;;;4990527;28;20226;-82
2020/12/12 02:40:17;;;;;;;40.27;22.07;;;4.10;93.80;;;;;;4971491;28;20206;-80
2020/12/12 02:42:44;;;;;;;37.27;21.03;;;4.10;93.90;;;;;;4974333;28;20223;-82
2020/12/12 02:45:12;;;;;;;38.07;19.63;;;4.10;93.80;;;;;;4976187;28;20279;-81
2020/12/12 02:47:40;;;;;;;41.53;20.90;;;4.10;93.80;;;;;;4970186;28;20196;-81
2020/12/12 02:50:11;;;;;;;44.63;22.20;;;4.10;93.80;;;;;;4964125;28;20565;-85
2020/12/12 02:52:40;;;;;;;44.10;22.23;;;4.00;93.80;;;;;;4959515;28;20209;-82
2020/12/12 02:55:10;;;;;;;52.57;23.40;;;4.10;93.80;;;;;;4958071;28;20213;-82
2020/12/12 02:57:38;;;;;;;38.80;19.23;;;4.10;93.80;;;;;;4953413;28;20245;-81
2020/12/12 03:00:09;;;;;;;43.17;20.97;;;4.10;93.80;;;;;;4949163;28;20207;-83
2020/12/12 03:02:36;;;;;;;43.00;22.87;;;4.10;93.80;;;;;;4969723;28;20210;-81
2020/12/12 03:05:05;;;;;;;44.43;23.00;;;4.00;93.80;;;;;;4958063;28;20212;-81
2020/12/12 03:07:33;;;;;;;47.33;23.00;;;4.10;93.80;;;;;;4959434;28;20208;-82
2020/12/12 03:10:04;;;;;;;47.23;21.67;;;4.00;93.80;;;;;;4970644;28;20203;-83
2020/12/12 03:12:32;;;;;;;46.13;22.17;;;4.10;93.80;;;;;;4981749;28;20546;-80
2020/12/12 03:15:01;;;;;;;41.30;22.73;;;4.00;93.80;;;;;;4976817;28;20207;-81
2020/12/12 03:17:28;;;;;;;47.13;23.10;;;4.00;93.80;;;;;;4967679;28;20551;-81
2020/12/12 03:19:56;;;;;;;45.67;22.77;;;4.00;93.80;;;;;;4968666;28;20214;-82
2020/12/12 03:22:24;;;;;;;44.43;21.83;;;4.00;93.80;;;;;;4950991;28;20207;-81
2020/12/12 03:24:51;;;;;;;45.47;22.53;;;4.00;93.80;;;;;;4949741;28;20208;-82
2020/12/12 03:27:18;;;;;;;44.90;23.83;;;4.00;93.80;;;;;;4952146;28;20255;-81
2020/12/12 03:29:46;;;;;;;42.83;22.17;;;4.00;93.80;;;;;;4949205;28;20207;-81
2020/12/12 03:32:31;;;;;;;37.53;20.87;;;4.00;93.80;;;;;;4966070;28;20208;-80
2020/12/12 03:34:59;;;;;;;46.67;22.53;;;4.00;93.80;;;;;;4976937;28;20435;-82
2020/12/12 03:37:26;;;;;;;33.67;18.17;;;4.00;93.80;;;;;;4963971;28;20231;-80
2020/12/12 03:39:54;;;;;;;41.90;22.43;;;4.00;93.80;;;;;;4983422;28;20214;-83
2020/12/12 03:42:22;;;;;;;40.10;21.67;;;4.00;93.80;;;;;;4979990;28;20493;-81
2020/12/12 03:44:49;;;;;;;38.87;22.17;;;4.00;93.80;;;;;;4975528;28;20197;-81
2020/12/12 03:47:17;;;;;;;42.87;22.10;;;4.00;93.80;;;;;;4972364;28;20305;-80
2020/12/12 03:49:45;;;;;;;40.70;22.20;;;4.00;93.80;;;;;;4963870;28;20207;-82
2020/12/12 03:52:16;;;;;;;36.97;19.20;;;4.10;93.80;;;;;;4965667;28;20213;-81
2020/12/12 03:54:43;;;;;;;37.90;20.33;;;3.90;93.70;;;;;;4961845;28;20903;-84
2020/12/12 03:57:13;;;;;;;37.93;21.43;;;3.90;93.70;;;;;;4955839;28;20238;-81
2020/12/12 03:59:41;;;;;;;36.37;21.07;;;3.90;93.70;;;;;;4954660;28;20195;-81
2020/12/12 04:02:08;;;;;;;37.47;20.60;;;4.00;93.70;;;;;;4946334;28;20484;-80
2020/12/12 04:04:36;;;;;;;31.97;20.13;;;4.00;93.70;;;;;;4956864;28;20626;-80
2020/12/12 04:07:05;;;;;;;37.47;20.83;;;4.00;93.70;;;;;;4957017;28;20265;-83
2020/12/12 04:09:32;;;;;;;35.27;16.97;;;3.90;93.70;;;;;;4957890;28;20199;-79
2020/12/12 04:12:00;;;;;;;32.17;17.33;;;3.90;93.70;;;;;;4954507;28;20210;-81
2020/12/12 04:14:28;;;;;;;31.70;17.43;;;3.90;93.60;;;;;;4947134;28;20218;-80
2020/12/12 04:16:55;;;;;;;35.50;19.40;;;3.90;93.60;;;;;;4951807;28;20227;-81
2020/12/12 04:19:23;;;;;;;35.53;20.30;;;3.90;93.60;;;;;;4952347;28;20214;-80
2020/12/12 04:21:50;;;;;;;35.20;19.47;;;3.90;93.60;;;;;;4955638;28;20206;-82
2020/12/12 04:24:18;;;;;;;37.37;20.30;;;3.70;93.60;;;;;;4938671;28;20447;-82
2020/12/12 04:26:46;;;;;;;29.67;16.73;;;3.80;93.60;;;;;;4947561;28;20205;-81
2020/12/12 04:29:13;;;;;;;35.40;19.97;;;3.80;93.60;;;;;;4949032;28;20211;-81
2020/12/12 04:31:40;;;;;;;38.97;20.53;;;3.90;93.60;;;;;;4947847;28;20208;-83
2020/12/12 04:34:09;;;;;;;34.83;19.80;;;3.80;93.60;;;;;;4948263;28;20210;-81
2020/12/12 04:36:36;;;;;;;39.37;20.40;;;3.70;93.60;;;;;;4970140;28;20604;-82
2020/12/12 04:39:04;;;;;;;39.53;20.43;;;3.80;93.60;;;;;;4978353;28;20219;-81
2020/12/12 04:41:35;;;;;;;38.47;19.73;;;3.80;93.60;;;;;;4971766;28;20202;-81
2020/12/12 04:44:03;;;;;;;35.83;19.37;;;3.80;93.60;;;;;;4974015;28;20191;-82
2020/12/12 04:46:31;;;;;;;41.13;20.57;;;3.80;93.60;;;;;;4958363;28;20221;-81
2020/12/12 04:48:59;;;;;;;43.77;22.33;;;3.70;93.60;;;;;;4966325;28;20206;-80
2020/12/12 04:51:27;;;;;;;43.73;21.97;;;3.70;93.60;;;;;;4944803;28;20218;-81
2020/12/12 04:53:57;;;;;;;34.00;19.83;;;3.70;93.60;;;;;;4960018;28;20295;-82
2020/12/12 04:56:26;;;;;;;41.40;20.63;;;3.60;93.50;;;;;;4951114;28;20231;-83
2020/12/12 04:58:55;;;;;;;39.33;21.47;;;3.60;93.50;;;;;;4946960;28;20205;-81
2020/12/12 05:01:22;;;;;;;45.03;20.90;;;3.60;93.50;;;;;;4951913;28;20232;-83
2020/12/12 05:03:52;;;;;;;39.47;20.50;;;3.50;93.40;;;;;;4951004;28;20588;-83
2020/12/12 05:06:19;;;;;;;45.60;21.60;;;3.50;93.40;;;;;;4945813;28;20690;-81
2020/12/12 05:08:46;;;;;;;44.63;21.87;;;3.50;93.40;;;;;;4952119;28;20262;-81
2020/12/12 05:11:15;;;;;;;42.07;21.03;;;3.40;93.40;;;;;;4975760;28;20220;-82
2020/12/12 05:13:46;;;;;;;42.93;19.27;;;3.40;93.40;;;;;;4958233;28;20667;-81
2020/12/12 05:16:14;;;;;;;41.77;21.33;;;3.40;93.50;;;;;;4966274;28;20201;-83
2020/12/12 05:18:43;;;;;;;42.50;21.00;;;3.40;93.50;;;;;;4975810;28;20577;-81
2020/12/12 05:21:11;;;;;;;41.27;21.40;;;3.40;93.40;;;;;;4951081;28;20609;-82
2020/12/12 05:23:38;;;;;;;41.90;20.30;;;3.40;93.50;;;;;;4969924;28;20197;-81
2020/12/12 05:26:06;;;;;;;47.67;21.37;;;3.40;93.50;;;;;;4973373;28;20221;-80
2020/12/12 05:28:34;;;;;;;42.53;21.67;;;3.30;93.40;;;;;;4966990;28;20206;-80
2020/12/12 05:31:01;;;;;;;47.37;22.03;;;3.30;93.40;;;;;;4978890;28;20231;-82
2020/12/12 05:33:30;;;;;;;38.53;20.00;;;3.20;93.40;;;;;;4949735;28;20617;-82
2020/12/12 05:35:57;;;;;;;43.03;22.53;;;3.20;93.40;;;;;;4955838;28;20205;-81
2020/12/12 05:38:25;;;;;;;40.73;21.43;;;3.20;93.40;;;;;;4946248;28;20197;-83
2020/12/12 05:40:55;;;;;;;47.73;21.80;;;3.20;93.40;;;;;;4945976;28;20222;-81
2020/12/12 05:43:30;;;;;;;42.10;21.70;;;3.20;93.40;;;;;;4946585;28;20201;-82
2020/12/12 05:45:59;;;;;;;45.20;22.13;;;3.20;93.40;;;;;;4955630;28;20207;-82
2020/12/12 05:48:28;;;;;;;43.90;22.47;;;3.20;93.40;;;;;;4955644;28;20209;-82
2020/12/12 05:50:56;;;;;;;42.53;21.67;;;3.10;93.40;;;;;;4959336;28;20210;-82
2020/12/12 05:53:24;;;;;;;41.43;22.20;;;3.10;93.30;;;;;;4950881;28;20737;-82
2020/12/12 05:55:55;;;;;;;43.10;20.90;;;3.10;93.40;;;;;;4965984;28;20641;-81
2020/12/12 05:58:23;;;;;;;40.43;18.53;;;3.10;93.40;;;;;;4954083;28;20637;-80
2020/12/12 06:00:52;;;;;;;45.83;21.03;;;3.10;93.40;;;;;;4942493;28;20237;-83
2020/12/12 06:03:30;;;;;;;44.93;20.73;;;3.10;93.40;;;;;;4962273;28;20213;-81
2020/12/12 06:06:04;;;;;;;45.73;22.00;;;3.10;93.40;;;;;;4968911;28;20271;-82
2020/12/12 06:08:35;;;;;;;44.60;22.37;;;3.10;93.40;;;;;;4964784;28;20188;-79
2020/12/12 06:11:05;;;;;;;44.97;21.97;;;3.10;93.40;;;;;;4953065;28;20296;-81
2020/12/12 06:13:35;;;;;;;45.83;21.47;;;3.00;93.30;;;;;;4950504;28;20213;-82
2020/12/12 06:16:04;;;;;;;42.43;19.97;;;3.00;93.40;;;;;;4947894;28;20292;-81
2020/12/12 06:18:42;;;;;;;46.20;21.57;;;2.90;93.30;;;;;;4952953;28;20229;-82
2020/12/12 06:21:11;;;;;;;46.27;23.47;;;2.90;93.30;;;;;;4947937;28;20212;-82
2020/12/12 06:23:41;;;;;;;46.20;21.50;;;2.90;93.30;;;;;;4946156;28;20279;-81
2020/12/12 06:26:10;;;;;;;40.20;20.77;;;2.90;93.40;;;;;;4942982;28;20292;-82
2020/12/12 06:28:42;;;;;;;41.50;20.90;;;2.90;93.40;;;;;;4943769;28;20665;-80
2020/12/12 06:31:11;;;;;;;47.10;22.83;;;2.90;93.40;;;;;;4950416;28;20319;-81
2020/12/12 06:33:49;;;;;;;44.43;22.43;;;2.90;93.40;;;;;;4943552;28;20634;-81
2020/12/12 06:36:26;;;;;;;45.17;21.40;;;2.90;93.40;;;;;;4948385;28;20222;-82
2020/12/12 06:39:19;;;;;;;41.20;19.97;;;2.90;93.40;;;;;;4950170;28;20621;-82
2020/12/12 06:41:49;;;;;;;34.10;19.33;;;2.80;93.30;;;;;;4951212;28;20205;-81
2020/12/12 06:44:35;;;;;;;35.43;17.07;;;2.90;93.20;;;;;;4954919;28;20217;-81
2020/12/12 06:47:04;;;;;;;34.80;18.13;;;2.80;93.20;;;;;;4953670;28;20288;-81
2020/12/12 06:49:32;;;;;;;28.93;16.43;;;2.80;93.10;;;;;;4948835;28;20214;-82
2020/12/12 06:52:01;;;;;;;20.60;11.83;;;2.80;93.10;;;;;;4948753;28;20283;-81
2020/12/12 06:54:29;;;;;;;28.17;15.47;;;2.80;93.00;;;;;;4942741;28;20951;-82
2020/12/12 06:56:56;;;;;;;30.10;15.70;;;2.80;93.00;;;;;;4968917;28;20236;-82
2020/12/12 06:59:35;;;;;;;24.67;13.43;;;2.80;93.00;;;;;;4951859;28;20742;-80
2020/12/12 07:02:05;;;;;;;29.10;15.47;;;2.80;93.00;;;;;;4946122;28;20272;-81
2020/12/12 07:04:34;;;;;;;26.80;15.07;;;2.80;92.90;;;;;;4956354;28;20683;-82
2020/12/12 07:07:06;;;;;;;27.37;14.07;;;2.70;92.90;;;;;;4971392;28;20264;-82
2020/12/12 07:09:35;;;;;;;23.90;13.77;;;2.80;92.90;;;;;;4944499;28;20827;-80
2020/12/12 07:12:03;;;;;;;23.13;12.33;;;2.80;92.90;;;;;;4955363;28;20221;-81
2020/12/12 07:14:30;;;;;;;24.60;12.37;;;2.90;92.90;;;;;;4942143;28;21305;-81
2020/12/12 07:17:00;;;;;;;19.33;10.90;;;2.70;92.80;;;;;;4950762;28;20240;-83
2020/12/12 07:19:33;;;;;;;19.63;11.10;;;2.70;92.80;;;;;;4963237;28;20208;-82
2020/12/12 07:22:04;;;;;;;17.27;10.57;;;2.70;92.80;;;;;;4974382;28;20233;-80
2020/12/12 07:24:32;;;;;;;20.10;11.93;;;2.70;92.80;;;;;;4943846;28;20780;-83
2020/12/12 07:27:01;;;;;;;19.97;13.20;;;2.70;92.70;;;;;;4962747;28;20206;-81
2020/12/12 07:29:30;;;;;;;19.90;12.70;;;2.70;92.70;;;;;;4965399;28;20209;-83
2020/12/12 07:31:59;;;;;;;19.30;11.83;;;2.70;92.80;;;;;;4969532;28;20255;-82
2020/12/12 07:34:28;;;;;;;19.63;9.80;;;2.70;92.70;;;;;;4978173;28;20186;-82
2020/12/12 07:36:57;;;;;;;18.37;11.53;;;2.70;92.70;;;;;;4973601;28;20224;-82
2020/12/12 07:39:30;;;;;;;20.20;12.67;;;2.70;92.80;;;;;;4961735;28;20560;-81
2020/12/12 07:41:58;;;;;;;17.33;10.20;;;2.70;92.80;;;;;;4975175;28;20212;-81
2020/12/12 07:44:27;;;;;;;20.93;12.97;;;2.70;92.70;;;;;;4983226;28;20246;-84
2020/12/12 07:46:57;;;;;;;20.70;11.90;;;2.60;92.60;;;;;;4957934;28;20240;-83
2020/12/12 07:49:30;;;;;;;17.57;10.77;;;2.60;92.60;;;;;;4973358;28;20228;-82
2020/12/12 07:52:05;;;;;;;17.90;11.23;;;2.60;92.60;;;;;;4977950;28;20233;-80
2020/12/12 07:54:37;;;;;;;19.63;11.83;;;2.60;92.60;;;;;;4988016;28;20216;-81
2020/12/12 07:57:07;;;;;;;16.30;11.00;;;2.60;92.50;;;;;;4985702;28;20244;-79
2020/12/12 07:59:35;;;;;;;18.80;12.13;;;2.60;92.50;;;;;;4958466;28;20742;-80
2020/12/12 08:02:04;;;;;;;18.93;10.37;;;2.60;92.50;;;;;;4941265;28;20767;-81
2020/12/12 08:04:32;;;;;;;15.30;10.10;;;2.60;92.40;;;;;;4943159;28;20862;-82
2020/12/12 08:07:09;;;;;;;18.30;11.90;;;2.60;92.50;;;;;;4952788;28;20237;-82
2020/12/12 08:09:38;;;;;;;19.57;11.93;;;2.60;92.40;;;;;;4958766;28;20212;-80
2020/12/12 08:12:06;;;;;;;17.73;11.53;;;2.80;92.50;;;;;;4954239;28;20255;-80
2020/12/12 08:14:44;;;;;;;20.50;12.17;;;2.60;92.40;;;;;;4957652;28;20209;-82
2020/12/12 08:17:13;;;;;;;17.93;10.23;;;2.60;92.40;;;;;;4962629;28;20221;-80
2020/12/12 08:19:50;;;;;;;14.10;9.50;;;2.70;92.40;;;;;;4949594;28;20837;-82
2020/12/12 08:22:20;;;;;;;17.73;10.77;;;2.70;92.40;;;;;;4962102;28;20196;-82
2020/12/12 08:24:49;;;;;;;18.83;11.37;;;2.70;92.30;;;;;;4959872;28;20200;-80
2020/12/12 08:27:21;;;;;;;19.13;11.20;;;2.80;92.20;;;;;;4968007;28;20629;-83
2020/12/12 08:29:51;;;;;;;16.40;11.97;;;2.80;92.20;;;;;;4947366;28;20225;-81
2020/12/12 08:32:33;;;;;;;16.87;10.97;;;2.80;92.10;;;;;;4962879;28;20241;-81
2020/12/12 08:35:16;;;;;;;11.40;8.87;;;2.70;92.10;;;;;;4961947;28;20223;-80
2020/12/12 08:38:00;;;;;;;16.67;11.00;;;2.80;92.10;;;;;;4949678;28;20229;-83
2020/12/12 08:40:30;;;;;;;17.27;11.63;;;2.90;92.10;;;;;;4943324;28;20540;-81
2020/12/12 08:43:01;;;;;;;17.37;10.83;;;2.70;92.00;;;;;;4945986;28;20228;-82
2020/12/12 08:45:34;;;;;;;17.63;10.97;;;2.70;92.10;;;;;;4952205;28;20205;-81
2020/12/12 08:48:07;;;;;;;18.50;12.30;;;2.70;92.10;;;;;;4956786;28;20194;-81
2020/12/12 08:50:49;;;;;;;16.13;9.13;;;2.70;92.10;;;;;;4950476;28;20197;-82
2020/12/12 08:53:31;;;;;;;18.13;12.40;;;2.70;92.10;;;;;;4961941;28;20300;-81
2020/12/12 08:56:04;;;;;;;18.30;10.13;;;2.70;92.10;;;;;;4961474;28;20543;-81
2020/12/12 08:58:45;;;;;;;18.83;12.40;;;2.70;92.00;;;;;;4980767;28;20275;-80
2020/12/12 09:01:19;;;;;;;15.70;10.17;;;2.70;92.10;;;;;;4985730;28;20296;-80
2020/12/12 09:03:54;;;;;;;18.73;12.00;;;2.70;92.10;;;;;;4964568;28;20584;-79
2020/12/12 09:06:22;;;;;;;19.53;11.93;;;2.70;92.10;;;;;;4963250;28;20621;-81
2020/12/12 09:09:07;;;;;;;15.70;11.47;;;2.70;92.10;;;;;;4958496;28;20201;-82
2020/12/12 09:11:36;;;;;;;15.70;11.00;;;2.80;92.10;;;;;;4951697;28;20220;-83
2020/12/12 09:14:04;;;;;;;18.23;11.90;;;2.70;92.00;;;;;;4952587;28;20213;-82
2020/12/12 09:16:31;;;;;;;19.67;12.20;;;2.80;92.10;;;;;;4958298;28;20382;-83
2020/12/12 09:19:00;;;;;;;17.60;12.57;;;2.80;92.10;;;;;;4954594;28;20683;-80
2020/12/12 09:21:31;;;;;;;17.60;11.13;;;2.80;92.00;;;;;;4944864;28;20215;-81
2020/12/12 09:23:59;;;;;;;17.17;11.63;;;2.90;92.00;;;;;;4943623;28;20301;-83
2020/12/12 09:26:26;;;;;;;15.77;11.27;;;2.80;92.10;;;;;;4959208;28;20195;-82
2020/12/12 09:28:55;;;;;;;17.13;11.80;;;2.80;92.10;;;;;;4948117;28;20207;-82
2020/12/12 09:31:23;;;;;;;17.13;12.40;;;2.80;92.00;;;;;;4973948;28;20243;-79
2020/12/12 09:33:51;;;;;;;17.07;12.03;;;2.90;92.10;;;;;;4940103;28;20206;-81
2020/12/12 09:36:19;;;;;;;16.67;11.03;;;2.90;92.00;;;;;;4941208;28;20220;-82
2020/12/12 09:38:46;;;;;;;15.27;11.20;;;3.00;92.00;;;;;;4952077;28;20225;-80
2020/12/12 09:41:14;;;;;;;17.73;11.13;;;3.00;92.00;;;;;;4950168;28;20209;-83
2020/12/12 09:43:41;;;;;;;15.30;10.50;;;3.00;91.60;;;;;;4951291;28;20523;-80
2020/12/12 09:46:11;;;;;;;15.40;10.97;;;3.00;91.60;;;;;;4946022;28;20209;-82
2020/12/12 09:48:39;;;;;;;15.43;11.53;;;3.00;91.60;;;;;;4954254;28;20213;-82
2020/12/12 09:51:08;;;;;;;18.70;11.10;;;3.00;91.70;;;;;;4945394;28;20210;-83
2020/12/12 09:53:37;;;;;;;16.10;10.90;;;3.10;91.80;;;;;;4942810;28;20208;-81
2020/12/12 09:56:05;;;;;;;15.60;11.60;;;3.00;91.60;;;;;;4942540;28;20750;-81
2020/12/12 09:58:32;;;;;;;15.13;11.00;;;3.00;91.60;;;;;;4964312;28;20358;-82
2020/12/12 10:01:00;;;;;;;16.07;11.87;;;2.90;91.70;;;;;;4951230;28;20348;-81
2020/12/12 10:03:31;;;;;;;15.80;10.97;;;3.00;91.80;;;;;;4950333;28;20349;-83
2020/12/12 10:05:59;;;;;;;12.30;8.37;;;3.00;91.70;;;;;;4956727;28;20766;-81
2020/12/12 10:08:27;;;;;;;16.10;11.17;;;3.00;91.60;;;;;;4960549;28;20202;-83
2020/12/12 10:10:54;;;;;;;16.87;11.90;;;2.90;91.70;;;;;;4949849;28;20329;-81
2020/12/12 10:13:22;;;;;;;17.50;11.23;;;2.90;91.80;;;;;;4953406;28;20206;-80
2020/12/12 10:15:49;;;;;;;14.93;10.77;;;2.90;91.90;;;;;;4956660;28;20273;-81
2020/12/12 10:18:17;;;;;;;15.87;10.40;;;2.90;91.80;;;;;;4976829;28;20237;-85
2020/12/12 10:20:47;;;;;;;19.47;12.37;;;2.90;91.80;;;;;;4954630;28;20213;-81
2020/12/12 10:23:14;;;;;;;17.37;12.07;;;3.00;92.00;;;;;;4964884;28;20328;-82
2020/12/12 10:25:42;;;;;;;15.60;10.83;;;3.00;91.70;;;;;;4980317;28;20275;-82
2020/12/12 10:28:10;;;;;;;16.57;11.90;;;3.00;91.70;;;;;;4986027;28;20304;-82
2020/12/12 10:30:38;;;;;;;14.17;10.03;;;3.00;91.70;;;;;;4980064;28;20270;-79
2020/12/12 10:33:06;;;;;;;9.63;6.83;;;3.00;91.70;;;;;;4950302;28;20410;-80
2020/12/12 10:35:35;;;;;;;16.53;11.07;;;3.00;91.60;;;;;;4985095;28;20239;-82
2020/12/12 10:38:04;;;;;;;18.13;11.50;;;3.10;91.60;;;;;;4970601;28;20241;-82
2020/12/12 10:40:33;;;;;;;15.90;11.43;;;3.10;91.60;;;;;;4962134;28;20296;-81
2020/12/12 10:43:04;;;;;;;15.57;12.07;;;3.10;91.70;;;;;;4987706;28;20342;-80
2020/12/12 10:45:32;;;;;;;16.97;12.17;;;3.10;91.60;;;;;;4964721;28;20690;-81
2020/12/12 10:48:00;;;;;;;17.03;11.67;;;3.10;91.60;;;;;;4962736;28;20248;-82
2020/12/12 10:50:29;;;;;;;17.83;12.07;;;3.10;91.60;;;;;;4957906;28;20210;-81
2020/12/12 10:52:58;;;;;;;17.10;12.73;;;3.10;91.60;;;;;;4956441;28;20252;-82
2020/12/12 10:55:27;;;;;;;15.03;11.23;;;3.10;91.70;;;;;;4962092;28;20206;-81
2020/12/12 10:57:55;;;;;;;16.90;12.00;;;3.10;91.60;;;;;;4964852;28;20227;-82
2020/12/12 11:00:25;;;;;;;16.80;10.53;;;3.10;91.60;;;;;;4956159;28;20219;-82
2020/12/12 11:02:53;;;;;;;18.87;11.37;;;3.10;91.60;;;;;;4959792;28;20214;-81
2020/12/12 11:05:22;;;;;;;15.47;11.50;;;3.10;91.50;;;;;;4964050;28;20668;-81
2020/12/12 11:07:52;;;;;;;17.27;11.83;;;3.10;91.50;;;;;;4965101;28;20226;-83
2020/12/12 11:10:20;;;;;;;15.20;10.60;;;3.10;91.40;;;;;;4985404;28;20231;-82
2020/12/12 11:12:50;;;;;;;16.73;11.23;;;3.10;91.50;;;;;;4978941;28;20206;-82
2020/12/12 11:15:17;;;;;;;15.90;10.60;;;3.10;91.40;;;;;;4981593;28;20381;-81
2020/12/12 11:17:46;;;;;;;14.10;8.73;;;3.10;91.40;;;;;;4973934;28;20243;-82
2020/12/12 11:20:15;;;;;;;15.10;11.30;;;3.10;91.50;;;;;;4966303;28;20206;-81
2020/12/12 11:22:42;;;;;;;16.00;11.33;;;3.10;91.50;;;;;;4971930;28;20240;-82
2020/12/12 11:25:11;;;;;;;14.23;11.40;;;3.10;91.50;;;;;;4962458;28;20553;-81
2020/12/12 11:27:40;;;;;;;16.60;11.73;;;3.20;91.60;;;;;;4964152;28;20199;-81
2020/12/12 11:30:11;;;;;;;15.40;10.90;;;3.20;91.60;;;;;;4948599;28;20213;-81
2020/12/12 11:32:41;;;;;;;15.60;11.87;;;3.20;91.50;;;;;;4949695;28;20429;-80
2020/12/12 11:35:13;;;;;;;15.37;11.57;;;3.20;91.50;;;;;;4945120;28;20772;-82
2020/12/12 11:38:03;;;;;;;16.87;11.00;;;3.20;91.40;;;;;;4952726;28;20225;-83
2020/12/12 11:40:38;;;;;;;14.27;10.80;;;3.20;91.40;;;;;;4963530;28;20194;-83
2020/12/12 11:43:27;;;;;;;15.27;11.17;;;3.30;91.40;;;;;;4955696;28;20213;-82
2020/12/12 11:46:16;;;;;;;16.07;11.57;;;3.30;91.40;;;;;;4973731;28;20209;-79
2020/12/12 11:48:50;;;;;;;16.20;10.53;;;3.20;91.20;;;;;;4962245;28;20237;-82
2020/12/12 11:51:17;;;;;;;17.60;11.83;;;3.30;91.30;;;;;;4967584;28;20638;-81
2020/12/12 11:53:46;;;;;;;15.50;11.27;;;3.20;91.40;;;;;;5004599;28;20189;-82
2020/12/12 11:56:16;;;;;;;18.90;11.97;;;3.30;91.30;;;;;;5006752;28;20185;-81
2020/12/12 11:58:44;;;;;;;14.30;10.23;;;3.30;91.30;;;;;;4998241;28;20226;-83
2020/12/12 12:01:12;;;;;;;15.53;11.00;;;3.30;91.30;;;;;;4956584;28;20214;-82
2020/12/12 12:03:41;;;;;;;14.47;11.20;;;3.30;91.20;;;;;;4954522;28;20211;-81
2020/12/12 12:06:08;;;;;;;15.87;10.60;;;3.30;91.20;;;;;;4964107;28;20574;-82
2020/12/12 12:08:42;;;;;;;15.93;10.97;;;3.30;91.30;;;;;;4955651;28;20208;-81
2020/12/12 12:11:18;;;;;;;12.90;8.83;;;3.30;91.40;;;;;;4963000;28;20209;-79
2020/12/12 12:13:46;;;;;;;16.63;11.53;;;3.10;91.20;;;;;;4974689;28;20205;-82
2020/12/12 12:16:19;;;;;;;17.33;12.30;;;3.20;91.20;;;;;;4955057;28;20643;-83
2020/12/12 12:18:48;;;;;;;15.00;12.27;;;3.20;91.30;;;;;;4966013;28;20685;-82
2020/12/12 12:21:16;;;;;;;16.30;12.23;;;3.20;91.40;;;;;;4962985;28;20445;-81
2020/12/12 12:23:44;;;;;;;10.27;8.43;;;3.20;91.50;;;;;;4957051;28;20465;-81
2020/12/12 12:26:13;;;;;;;15.83;10.50;;;3.20;91.40;;;;;;4964716;28;20205;-83
2020/12/12 12:28:41;;;;;;;15.93;10.60;;;3.20;91.20;;;;;;4987009;28;20197;-82
2020/12/12 12:31:09;;;;;;;18.07;11.53;;;3.20;91.20;;;;;;4966536;28;20212;-83
2020/12/12 12:33:38;;;;;;;16.37;11.93;;;3.20;91.20;;;;;;4969481;28;20210;-82
2020/12/12 12:36:06;;;;;;;15.57;11.87;;;3.30;91.30;;;;;;4961561;28;20206;-82
2020/12/12 12:38:33;;;;;;;17.97;12.30;;;3.20;91.30;;;;;;4952000;28;20226;-82
2020/12/12 12:41:01;;;;;;;13.63;9.60;;;3.20;91.30;;;;;;4970464;28;20221;-83
2020/12/12 12:43:29;;;;;;;12.60;9.70;;;3.20;91.30;;;;;;4950082;28;20337;-81
2020/12/12 12:45:57;;;;;;;17.90;13.20;;;3.20;91.20;;;;;;4957685;28;20822;-81
2020/12/12 12:48:24;;;;;;;26.47;17.97;;;3.20;91.20;;;;;;4970286;28;20242;-80
2020/12/12 12:50:54;;;;;;;21.40;14.90;;;3.20;91.20;;;;;;4959436;28;20232;-81